Accueil
METAR-TAF:

METAR-TAF

Aéroports :

Matagami, Québec, Canada

latitude: 49-46N, longitude: 077-49W, altitude: 281 m

Observation

Le bulletin a été fait il y a 26 minutes, à 21:00 UTC
Vent 17 kt de ouest avec des rafales jusqu'à 25 kt, variant entre ouest et nord/nord-ouest
Température 28°C
Humidité 23%
Pression 1007 hPa
Visibilité: 14.5 km
Ciel clair

METAR: CYNM 242100Z AUTO 28017G25KT 260V330 9SM CLR 28/05 A2975 RMK SLP079 DENSITY ALT 2800FT

Heure: 17:26 (21:26 UTC)


TAF: absent

Observations et prévisions météorologiques de plus de 4000 aéroports (messages METAR et TAF).

Les stations disponibles sont représentées par des disques jaunes et rouges sur la carte.

Passer la souris dessus pour voir le nom de la station.

Cliquer dessus pour voir les observations et prévisions météorologiques.

Pour changer de carte: cliquez sur les boutons verts avec une croix noire pour zoomer, sur le bouton vert avec un tiret pour effectuer un zoom arrière, ou sur les flèches vertes pour les cartes adjacentes.


METAR-TAF: